createdAt,value
2023-04-18T00:00:18.543Z,45.13
2023-04-18T00:02:47.504Z,44.81
2023-04-18T00:05:18.272Z,45.12
2023-04-18T00:07:45.731Z,44.91
2023-04-18T00:10:13.701Z,45.55
2023-04-18T00:12:43.132Z,45.56
2023-04-18T00:15:12.463Z,45.12
2023-04-18T00:17:40.400Z,45.31
2023-04-18T00:20:13.582Z,45.55
2023-04-18T00:22:42.981Z,45.68
2023-04-18T00:25:11.374Z,45.67
2023-04-18T00:27:39.474Z,45.38
2023-04-18T00:30:08.288Z,45.46
2023-04-18T00:32:38.804Z,45.87
2023-04-18T00:35:06.881Z,45.50
2023-04-18T00:37:35.921Z,45.71
2023-04-18T00:40:05.676Z,45.92
2023-04-18T00:42:33.598Z,45.50
2023-04-18T00:45:01.234Z,45.64
2023-04-18T00:47:28.741Z,45.87
2023-04-18T00:49:57.221Z,46.09
2023-04-18T00:52:27.335Z,45.69
2023-04-18T00:54:56.284Z,45.99
2023-04-18T00:57:24.594Z,46.08
2023-04-18T00:59:52.257Z,46.32
2023-04-18T01:02:20.351Z,46.34
2023-04-18T01:04:47.702Z,46.78
2023-04-18T01:07:15.333Z,46.68
2023-04-18T01:09:42.885Z,46.39
2023-04-18T01:12:11.625Z,46.72
2023-04-18T01:14:41.759Z,46.87
2023-04-18T01:17:10.756Z,47.66
2023-04-18T01:19:38.238Z,47.56
2023-04-18T01:22:08.743Z,47.30
2023-04-18T01:24:37.719Z,47.56
2023-04-18T01:27:06.002Z,47.90
2023-04-18T01:29:34.489Z,47.93
2023-04-18T01:32:02.754Z,47.52
2023-04-18T01:34:30.310Z,48.08
2023-04-18T01:36:57.901Z,47.70
2023-04-18T01:39:25.326Z,47.83
2023-04-18T01:41:54.813Z,48.15
2023-04-18T01:44:22.041Z,48.68
2023-04-18T01:46:49.437Z,48.83
2023-04-18T01:49:16.900Z,48.59
2023-04-18T01:51:44.410Z,48.73
2023-04-18T01:54:12.207Z,48.55
2023-04-18T01:56:39.735Z,48.65
2023-04-18T01:59:08.658Z,48.92
2023-04-18T02:01:36.173Z,49.29
2023-04-18T02:04:03.835Z,48.91
2023-04-18T02:06:31.451Z,49.27
2023-04-18T02:09:00.605Z,49.57
2023-04-18T02:11:27.891Z,49.74
2023-04-18T02:13:55.797Z,49.74
2023-04-18T02:16:24.808Z,49.45
2023-04-18T02:18:52.642Z,50.05
2023-04-18T02:21:20.059Z,50.21
2023-04-18T02:23:49.506Z,49.45
2023-04-18T02:26:16.855Z,49.35
2023-04-18T02:28:44.118Z,49.26
2023-04-18T02:31:14.894Z,49.14
2023-04-18T02:33:45.827Z,49.33
2023-04-18T02:36:14.051Z,49.18
2023-04-18T02:38:43.624Z,49.07
2023-04-18T02:41:15.349Z,48.97
2023-04-18T02:43:43.215Z,49.75
2023-04-18T02:46:11.200Z,49.09
2023-04-18T02:48:38.686Z,49.11
2023-04-18T02:51:09.226Z,49.05
2023-04-18T02:53:38.486Z,49.62
2023-04-18T02:56:07.007Z,49.32
2023-04-18T02:58:54.427Z,49.37
2023-04-18T03:01:47.919Z,49.83
2023-04-18T03:04:18.725Z,49.90
2023-04-18T03:06:58.073Z,49.67
2023-04-18T03:09:27.176Z,49.94
2023-04-18T03:11:59.624Z,49.96
2023-04-18T03:14:30.012Z,49.59
2023-04-18T03:16:57.380Z,49.95
2023-04-18T03:19:29.304Z,49.41
2023-04-18T03:22:01.172Z,49.19
2023-04-18T03:24:28.542Z,49.58
2023-04-18T03:27:00.685Z,49.42
2023-04-18T03:29:28.825Z,49.98
2023-04-18T03:31:56.465Z,49.69
2023-04-18T03:34:24.178Z,50.37
2023-04-18T03:36:52.795Z,50.30
2023-04-18T03:39:21.523Z,51.01
2023-04-18T03:41:49.922Z,50.85
2023-04-18T03:44:18.035Z,50.83
2023-04-18T03:46:46.385Z,50.82
2023-04-18T03:49:13.883Z,50.58
2023-04-18T03:51:47.977Z,50.78
2023-04-18T03:54:15.984Z,51.00
2023-04-18T03:56:45.506Z,50.72
2023-04-18T03:59:14.168Z,50.99
2023-04-18T04:01:44.613Z,51.26
2023-04-18T04:04:14.204Z,51.62
2023-04-18T04:06:44.297Z,51.64
2023-04-18T04:09:22.592Z,51.59
2023-04-18T04:11:51.907Z,51.20
2023-04-18T04:14:19.733Z,51.19
2023-04-18T04:16:47.195Z,51.26
2023-04-18T04:19:17.210Z,51.45
2023-04-18T04:21:53.546Z,51.88
2023-04-18T04:24:22.815Z,51.67
2023-04-18T04:26:53.373Z,51.32
2023-04-18T04:29:24.709Z,51.16
2023-04-18T04:31:53.659Z,51.47
2023-04-18T04:34:34.520Z,51.30
2023-04-18T04:37:05.026Z,51.41
2023-04-18T04:39:37.820Z,51.33
2023-04-18T04:42:28.709Z,51.21
2023-04-18T04:45:12.621Z,50.62
2023-04-18T04:47:40.195Z,50.80
2023-04-18T04:50:14.777Z,50.43
2023-04-18T04:52:42.680Z,50.38
2023-04-18T04:55:10.960Z,50.06
2023-04-18T04:57:39.668Z,50.58
2023-04-18T05:00:24.478Z,50.09
2023-04-18T05:02:56.497Z,50.06
2023-04-18T05:05:25.753Z,50.22
2023-04-18T05:07:53.285Z,49.99
2023-04-18T05:10:21.804Z,49.49
2023-04-18T05:12:50.592Z,49.75
2023-04-18T05:15:18.675Z,50.05
2023-04-18T05:17:46.416Z,49.79
2023-04-18T05:20:13.951Z,50.08
2023-04-18T05:22:41.432Z,49.83
2023-04-18T05:25:09.430Z,49.78
2023-04-18T05:27:36.774Z,49.71
2023-04-18T05:30:06.983Z,49.56
2023-04-18T05:32:34.623Z,50.16
2023-04-18T05:35:02.151Z,50.33
2023-04-18T05:37:30.674Z,50.07
2023-04-18T05:39:59.918Z,50.79
2023-04-18T05:42:28.293Z,50.62
2023-04-18T05:44:55.794Z,50.12
2023-04-18T05:47:27.056Z,50.01
2023-04-18T05:49:55.152Z,50.22
2023-04-18T05:52:23.002Z,50.29
2023-04-18T05:54:51.013Z,50.46
2023-04-18T05:57:18.502Z,50.38
2023-04-18T05:59:45.941Z,50.01
2023-04-18T06:02:13.759Z,49.83
2023-04-18T06:04:43.562Z,49.65
2023-04-18T06:07:11.837Z,49.81
2023-04-18T06:09:39.138Z,49.20
2023-04-18T06:12:06.600Z,48.95
2023-04-18T06:14:34.166Z,48.89
2023-04-18T06:17:01.391Z,49.15
2023-04-18T06:19:28.970Z,48.74
2023-04-18T06:21:57.681Z,48.99
2023-04-18T06:24:25.067Z,48.62
2023-04-18T06:26:52.558Z,48.90
2023-04-18T06:29:19.942Z,48.43
2023-04-18T06:31:48.464Z,48.26
2023-04-18T06:34:16.632Z,48.03
2023-04-18T06:36:44.195Z,47.88
2023-04-18T06:39:13.221Z,47.36
2023-04-18T06:41:40.601Z,46.00
2023-04-18T06:44:08.108Z,45.21
2023-04-18T06:46:35.912Z,44.67
2023-04-18T06:49:03.966Z,44.86
2023-04-18T06:51:31.797Z,45.01
2023-04-18T06:53:59.100Z,44.56
2023-04-18T06:56:27.979Z,43.91
2023-04-18T06:58:55.557Z,43.83
2023-04-18T07:01:22.926Z,43.15
2023-04-18T07:03:50.395Z,41.03
2023-04-18T07:06:18.857Z,40.99
2023-04-18T07:08:46.470Z,40.99
2023-04-18T07:11:13.822Z,40.73
2023-04-18T07:13:43.263Z,40.58
2023-04-18T07:16:10.715Z,40.23
2023-04-18T07:18:38.728Z,39.94
2023-04-18T07:21:09.271Z,40.24
2023-04-18T07:23:37.152Z,39.49
2023-04-18T07:26:05.930Z,39.67
2023-04-18T07:28:33.609Z,39.58
2023-04-18T07:31:03.872Z,39.74
2023-04-18T07:33:33.899Z,39.56
2023-04-18T07:36:02.029Z,39.74
2023-04-18T07:38:29.515Z,39.92
2023-04-18T07:40:57.792Z,39.81
2023-04-18T07:43:25.175Z,39.15
2023-04-18T07:45:53.204Z,39.07
2023-04-18T07:48:22.829Z,39.00
2023-04-18T07:50:50.354Z,38.74
2023-04-18T07:53:17.985Z,38.33
2023-04-18T07:55:45.798Z,38.19
2023-04-18T07:58:13.712Z,38.19
2023-04-18T08:00:42.839Z,37.74
2023-04-18T08:03:12.380Z,37.91
2023-04-18T08:05:43.108Z,38.02
2023-04-18T08:08:12.127Z,37.75
2023-04-18T08:10:39.697Z,38.28
2023-04-18T08:13:08.202Z,38.02
2023-04-18T08:15:35.956Z,38.35
2023-04-18T08:18:03.415Z,38.67
2023-04-18T08:20:31.113Z,38.85
2023-04-18T08:23:05.618Z,38.28
2023-04-18T08:25:36.630Z,38.38
2023-04-18T08:28:04.573Z,37.97
2023-04-18T08:30:32.015Z,38.10
2023-04-18T08:32:59.781Z,37.89
2023-04-18T08:35:27.418Z,37.77
2023-04-18T08:37:54.990Z,36.79
2023-04-18T08:40:24.255Z,36.82
2023-04-18T08:42:53.634Z,37.00
2023-04-18T08:45:21.371Z,36.53
2023-04-18T08:47:48.864Z,36.22
2023-04-18T08:50:17.462Z,36.05
2023-04-18T08:52:48.242Z,36.25
2023-04-18T08:55:16.502Z,36.53
2023-04-18T08:57:45.490Z,36.75
2023-04-18T09:00:14.094Z,36.86
2023-04-18T09:02:47.293Z,36.79
2023-04-18T09:05:16.640Z,36.81
2023-04-18T09:07:44.277Z,36.72
2023-04-18T09:10:12.793Z,36.70
2023-04-18T09:12:52.474Z,36.79
2023-04-18T09:15:23.460Z,36.65
2023-04-18T09:17:56.489Z,37.14
2023-04-18T09:20:30.869Z,37.20
2023-04-18T09:23:00.896Z,37.29
2023-04-18T09:25:29.973Z,37.31
2023-04-18T09:28:01.068Z,37.58
2023-04-18T09:30:34.423Z,37.52
2023-04-18T09:33:06.386Z,37.57
2023-04-18T09:35:38.082Z,37.87
2023-04-18T09:38:06.473Z,37.89
2023-04-18T09:40:34.022Z,37.87
2023-04-18T09:43:18.366Z,37.90
2023-04-18T09:45:46.977Z,37.91
2023-04-18T09:48:14.402Z,37.86
2023-04-18T09:50:42.661Z,37.94
2023-04-18T09:53:12.065Z,37.92
2023-04-18T09:55:40.400Z,38.14
2023-04-18T09:58:10.678Z,38.20
2023-04-18T10:00:40.135Z,38.29
2023-04-18T10:03:09.913Z,38.15
2023-04-18T10:05:41.905Z,38.25
2023-04-18T10:08:10.570Z,38.17
2023-04-18T10:10:39.059Z,38.33
2023-04-18T10:13:11.294Z,38.13
2023-04-18T10:15:51.686Z,38.29
2023-04-18T10:18:23.775Z,38.28
2023-04-18T10:21:00.615Z,38.30
2023-04-18T10:23:36.293Z,38.28
2023-04-18T10:26:04.766Z,38.35
2023-04-18T10:28:53.879Z,38.29
2023-04-18T10:31:22.571Z,38.57
2023-04-18T10:34:04.001Z,38.46
2023-04-18T10:36:32.661Z,38.42
2023-04-18T10:39:03.160Z,38.54
2023-04-18T10:41:32.530Z,38.70
2023-04-18T10:44:22.430Z,38.66
2023-04-18T10:47:18.629Z,38.58
2023-04-18T10:49:57.932Z,38.55
2023-04-18T10:52:25.808Z,38.69
2023-04-18T10:54:59.236Z,38.79
2023-04-18T10:57:37.986Z,38.92
2023-04-18T11:00:09.436Z,38.87
2023-04-18T11:02:37.346Z,38.66
2023-04-18T11:05:06.969Z,38.78
2023-04-18T11:07:35.781Z,38.70
2023-04-18T11:10:04.077Z,38.55
2023-04-18T11:12:34.558Z,38.72
2023-04-18T11:15:04.348Z,38.85
2023-04-18T11:17:34.908Z,38.68
2023-04-18T11:20:06.871Z,38.79
2023-04-18T11:22:43.299Z,38.98
2023-04-18T11:25:11.119Z,38.85
2023-04-18T11:27:41.746Z,38.81
2023-04-18T11:30:10.220Z,39.05
2023-04-18T11:32:39.368Z,38.96
2023-04-18T11:35:08.949Z,38.88
2023-04-18T11:37:36.415Z,38.90
2023-04-18T11:40:04.360Z,38.98
2023-04-18T11:42:34.882Z,39.25
2023-04-18T11:45:03.240Z,39.31
2023-04-18T11:47:35.143Z,39.23
2023-04-18T11:50:05.881Z,39.18
2023-04-18T11:52:34.704Z,39.12
2023-04-18T11:55:13.551Z,39.33
2023-04-18T11:57:42.210Z,39.38
2023-04-18T12:00:12.634Z,39.29
2023-04-18T12:02:42.799Z,39.29
2023-04-18T12:05:14.913Z,39.47
2023-04-18T12:07:44.747Z,39.21
2023-04-18T12:10:24.988Z,39.37
2023-04-18T12:12:54.453Z,39.38
2023-04-18T12:15:28.281Z,39.49
2023-04-18T12:18:00.706Z,39.21
2023-04-18T12:20:36.670Z,39.21
2023-04-18T12:23:04.490Z,39.18
2023-04-18T12:25:32.974Z,39.40
2023-04-18T12:28:02.022Z,39.25
2023-04-18T12:30:31.067Z,39.29
2023-04-18T12:33:00.149Z,39.12
2023-04-18T12:35:28.592Z,39.31
2023-04-18T12:37:59.994Z,39.15
2023-04-18T12:40:30.225Z,39.25
2023-04-18T12:42:57.625Z,39.36
2023-04-18T12:45:25.466Z,39.22
2023-04-18T12:47:53.746Z,39.06
2023-04-18T12:50:23.233Z,39.19
2023-04-18T12:52:52.048Z,39.25
2023-04-18T12:55:22.771Z,38.83
2023-04-18T12:57:51.812Z,38.75
2023-04-18T13:00:19.310Z,38.26
2023-04-18T13:02:46.864Z,37.48
2023-04-18T13:05:16.450Z,36.77
2023-04-18T13:07:46.365Z,36.42
2023-04-18T13:10:15.028Z,35.77
2023-04-18T13:12:44.011Z,36.01
2023-04-18T13:15:12.184Z,36.39
2023-04-18T13:17:40.151Z,36.31
2023-04-18T13:20:10.788Z,36.92
2023-04-18T13:22:38.601Z,37.21
2023-04-18T13:25:17.071Z,37.47
2023-04-18T13:27:46.848Z,37.98
2023-04-18T13:30:14.457Z,38.17
2023-04-18T13:32:44.027Z,38.46
2023-04-18T13:35:11.809Z,38.27
2023-04-18T13:37:39.786Z,38.57
2023-04-18T13:40:08.373Z,38.71
2023-04-18T13:42:37.388Z,38.84
2023-04-18T13:45:10.344Z,38.73
2023-04-18T13:47:39.580Z,38.83
2023-04-18T13:50:08.388Z,38.90
2023-04-18T13:52:36.419Z,38.92
2023-04-18T13:55:04.151Z,39.24
2023-04-18T13:57:34.132Z,39.18
2023-04-18T14:00:13.966Z,39.17
2023-04-18T14:02:42.680Z,39.17
2023-04-18T14:05:10.753Z,39.29
2023-04-18T14:07:38.845Z,39.29
2023-04-18T14:10:07.555Z,39.43
2023-04-18T14:12:35.120Z,39.41
2023-04-18T14:15:02.592Z,39.40
2023-04-18T14:17:34.150Z,39.37
2023-04-18T14:20:02.456Z,39.60
2023-04-18T14:22:31.270Z,39.57
2023-04-18T14:24:58.991Z,39.51
2023-04-18T14:27:26.659Z,39.44
2023-04-18T14:29:54.540Z,39.28
2023-04-18T14:32:21.741Z,39.28
2023-04-18T14:34:50.516Z,39.38
2023-04-18T14:37:17.878Z,39.53
2023-04-18T14:39:45.305Z,39.54
2023-04-18T14:42:12.756Z,39.68
2023-04-18T14:44:40.575Z,39.59
2023-04-18T14:47:08.007Z,39.69
2023-04-18T14:49:35.520Z,39.57
2023-04-18T14:52:04.976Z,39.90
2023-04-18T14:54:33.130Z,39.73
2023-04-18T14:57:03.523Z,39.78
2023-04-18T14:59:30.994Z,39.83
2023-04-18T15:01:59.728Z,39.74
2023-04-18T15:04:28.930Z,39.75
2023-04-18T15:06:56.542Z,39.84
2023-04-18T15:09:25.275Z,39.91
2023-04-18T15:11:52.680Z,39.94
2023-04-18T15:14:19.989Z,39.93
2023-04-18T15:16:49.599Z,39.68
2023-04-18T15:19:17.164Z,40.13
2023-04-18T15:21:45.068Z,40.14
2023-04-18T15:24:12.676Z,40.19
2023-04-18T15:26:42.607Z,40.25
2023-04-18T15:29:10.063Z,40.56
2023-04-18T15:31:39.056Z,40.48
2023-04-18T15:34:07.344Z,40.42
2023-04-18T15:36:36.139Z,40.51
2023-04-18T15:39:05.784Z,40.18
2023-04-18T15:41:35.486Z,40.69
2023-04-18T15:44:06.077Z,40.74
2023-04-18T15:46:35.508Z,40.91
2023-04-18T15:49:02.890Z,40.94
2023-04-18T15:51:30.477Z,40.97
2023-04-18T15:53:58.002Z,41.03
2023-04-18T15:56:26.923Z,40.90
2023-04-18T15:58:56.727Z,41.13
2023-04-18T16:01:26.929Z,41.18
2023-04-18T16:03:54.681Z,41.43
2023-04-18T16:06:23.593Z,41.60
2023-04-18T16:08:51.160Z,41.50
2023-04-18T16:11:20.751Z,41.27
2023-04-18T16:13:48.586Z,41.43
2023-04-18T16:16:18.641Z,41.69
2023-04-18T16:18:47.678Z,41.75
2023-04-18T16:21:15.949Z,41.78
2023-04-18T16:23:47.666Z,41.92
2023-04-18T16:26:17.338Z,42.02
2023-04-18T16:28:47.245Z,42.04
2023-04-18T16:31:15.494Z,41.86
2023-04-18T16:33:45.533Z,42.24
2023-04-18T16:36:39.558Z,42.17
2023-04-18T16:39:08.707Z,42.08
2023-04-18T16:41:36.077Z,42.18
2023-04-18T16:44:07.975Z,42.35
2023-04-18T16:46:37.524Z,42.59
2023-04-18T16:49:04.959Z,42.31
2023-04-18T16:51:41.249Z,42.72
2023-04-18T16:54:22.568Z,42.56
2023-04-18T16:57:19.444Z,42.52
2023-04-18T16:59:49.888Z,42.56
2023-04-18T17:02:44.644Z,42.92
2023-04-18T17:05:19.378Z,42.79
2023-04-18T17:07:49.934Z,42.55
2023-04-18T17:10:18.100Z,42.95
2023-04-18T17:12:49.197Z,42.73
2023-04-18T17:15:20.974Z,42.87
2023-04-18T17:17:48.571Z,43.38
2023-04-18T17:20:19.592Z,43.00
2023-04-18T17:22:51.438Z,43.25
2023-04-18T17:25:21.208Z,43.17
2023-04-18T17:27:49.477Z,42.98
2023-04-18T17:30:17.247Z,43.32
2023-04-18T17:32:46.329Z,43.49
2023-04-18T17:35:17.699Z,43.71
2023-04-18T17:37:47.361Z,43.81
2023-04-18T17:40:17.279Z,43.66
2023-04-18T17:42:47.698Z,43.53
2023-04-18T17:45:26.518Z,43.86
2023-04-18T17:47:54.940Z,43.54
2023-04-18T17:50:23.728Z,43.92
2023-04-18T17:52:55.163Z,43.77
2023-04-18T17:55:24.375Z,43.90
2023-04-18T17:57:51.687Z,43.83
2023-04-18T18:00:22.067Z,43.97
2023-04-18T18:02:53.088Z,44.13
2023-04-18T18:05:23.383Z,44.46
2023-04-18T18:07:54.771Z,44.24
2023-04-18T18:10:24.666Z,44.34
2023-04-18T18:12:52.311Z,44.20
2023-04-18T18:15:20.368Z,44.36
2023-04-18T18:17:48.939Z,44.17
2023-04-18T18:20:17.244Z,44.28
2023-04-18T18:22:45.009Z,44.64
2023-04-18T18:25:13.023Z,44.29
2023-04-18T18:27:42.088Z,44.40
2023-04-18T18:30:09.833Z,44.46
2023-04-18T18:32:37.288Z,44.61
2023-04-18T18:35:06.249Z,44.63
2023-04-18T18:37:33.687Z,44.65
2023-04-18T18:40:05.108Z,44.64
2023-04-18T18:42:35.743Z,44.79
2023-04-18T18:45:06.464Z,44.79
2023-04-18T18:47:39.682Z,45.15
2023-04-18T18:50:08.081Z,44.45
2023-04-18T18:52:37.363Z,44.87
2023-04-18T18:55:14.209Z,44.91
2023-04-18T18:57:41.537Z,44.95
2023-04-18T19:00:11.654Z,44.57
2023-04-18T19:02:39.767Z,45.12
2023-04-18T19:05:07.828Z,44.90
2023-04-18T19:07:35.127Z,45.39
2023-04-18T19:10:03.529Z,45.22
2023-04-18T19:12:34.393Z,45.12
2023-04-18T19:15:02.346Z,45.28
2023-04-18T19:17:36.986Z,45.57
2023-04-18T19:20:05.053Z,45.60
2023-04-18T19:22:33.574Z,45.87
2023-04-18T19:25:01.325Z,45.47
2023-04-18T19:27:32.456Z,45.61
2023-04-18T19:29:59.911Z,45.88
2023-04-18T19:32:27.378Z,45.51
2023-04-18T19:34:56.122Z,45.50
2023-04-18T19:37:23.619Z,45.55
2023-04-18T19:39:51.012Z,45.17
2023-04-18T19:42:18.602Z,45.61
2023-04-18T19:44:46.183Z,45.35
2023-04-18T19:47:13.623Z,45.21
2023-04-18T19:49:40.983Z,45.62
2023-04-18T19:52:09.744Z,45.75
2023-04-18T19:54:37.308Z,45.88
2023-04-18T19:57:06.422Z,45.84
2023-04-18T19:59:33.946Z,45.80
2023-04-18T20:02:04.351Z,46.06
2023-04-18T20:04:34.378Z,45.90
2023-04-18T20:07:02.268Z,45.74
2023-04-18T20:09:33.671Z,45.92
2023-04-18T20:12:02.165Z,46.22
2023-04-18T20:14:29.903Z,46.20
2023-04-18T20:16:57.554Z,46.45
2023-04-18T20:19:25.875Z,46.18
2023-04-18T20:21:53.234Z,46.42
2023-04-18T20:24:21.345Z,46.56
2023-04-18T20:26:51.481Z,46.60
2023-04-18T20:29:18.724Z,46.47
2023-04-18T20:31:46.318Z,46.44
2023-04-18T20:34:13.703Z,46.59
2023-04-18T20:36:41.679Z,46.98
2023-04-18T20:39:09.556Z,46.97
2023-04-18T20:41:37.188Z,46.97
2023-04-18T20:44:06.093Z,46.95
2023-04-18T20:46:33.487Z,46.85
2023-04-18T20:49:00.944Z,46.89
2023-04-18T20:51:28.410Z,47.15
2023-04-18T20:53:55.942Z,47.34
2023-04-18T20:56:23.336Z,47.55
2023-04-18T20:58:50.892Z,47.02
2023-04-18T21:01:19.732Z,47.14
2023-04-18T21:03:47.289Z,47.25
2023-04-18T21:06:16.616Z,46.98
2023-04-18T21:08:43.997Z,46.90
2023-04-18T21:11:11.310Z,46.97
2023-04-18T21:13:38.656Z,46.84
2023-04-18T21:16:08.001Z,46.69
2023-04-18T21:18:36.914Z,46.94
2023-04-18T21:21:04.530Z,46.98
2023-04-18T21:23:31.791Z,47.13
2023-04-18T21:25:59.293Z,46.50
2023-04-18T21:28:26.623Z,46.42
2023-04-18T21:30:53.992Z,46.70
2023-04-18T21:33:21.366Z,46.73
2023-04-18T21:35:50.109Z,47.01
2023-04-18T21:38:17.627Z,47.14
2023-04-18T21:40:45.095Z,46.75
2023-04-18T21:43:12.398Z,47.13
2023-04-18T21:45:39.738Z,47.39
2023-04-18T21:48:09.981Z,47.14
2023-04-18T21:50:37.450Z,47.40
2023-04-18T21:53:06.321Z,47.03
2023-04-18T21:55:33.585Z,46.98
2023-04-18T21:58:01.182Z,47.15
2023-04-18T22:00:28.536Z,47.56
2023-04-18T22:02:56.163Z,47.43
2023-04-18T22:05:23.508Z,46.98
2023-04-18T22:07:57.958Z,47.10
2023-04-18T22:10:27.995Z,46.66
2023-04-18T22:12:56.045Z,46.86
2023-04-18T22:15:24.597Z,46.86
2023-04-18T22:17:51.930Z,47.11
2023-04-18T22:20:19.313Z,46.58
2023-04-18T22:22:46.728Z,46.94
2023-04-18T22:25:14.002Z,46.61
2023-04-18T22:27:43.289Z,46.62
2023-04-18T22:30:11.962Z,46.94
2023-04-18T22:32:39.574Z,46.85
2023-04-18T22:35:08.393Z,46.78
2023-04-18T22:37:35.893Z,46.85
2023-04-18T22:40:05.272Z,46.84
2023-04-18T22:42:33.701Z,46.68
2023-04-18T22:45:02.631Z,46.88
2023-04-18T22:47:31.915Z,47.03
2023-04-18T22:49:59.395Z,46.77
2023-04-18T22:52:26.769Z,46.74
2023-04-18T22:54:54.343Z,46.60
2023-04-18T22:57:22.194Z,46.30
2023-04-18T22:59:49.470Z,46.62
2023-04-18T23:02:18.292Z,46.67
2023-04-18T23:04:46.420Z,46.61
2023-04-18T23:07:13.918Z,46.61
2023-04-18T23:09:41.678Z,46.96
2023-04-18T23:12:09.081Z,47.12
2023-04-18T23:14:36.520Z,46.74
2023-04-18T23:17:03.868Z,46.79
2023-04-18T23:19:32.984Z,46.97
2023-04-18T23:22:00.372Z,47.03
2023-04-18T23:24:27.809Z,46.75
2023-04-18T23:26:55.065Z,46.77
2023-04-18T23:29:22.435Z,47.08
2023-04-18T23:31:49.822Z,46.88
2023-04-18T23:34:17.474Z,46.84
2023-04-18T23:36:46.730Z,47.08
2023-04-18T23:39:14.156Z,46.47
2023-04-18T23:41:41.543Z,46.82
2023-04-18T23:44:09.111Z,46.56
2023-04-18T23:46:36.764Z,46.49
2023-04-18T23:49:04.300Z,46.42
2023-04-18T23:51:31.664Z,46.80
2023-04-18T23:54:00.542Z,47.05
2023-04-18T23:56:28.264Z,46.77
2023-04-18T23:58:55.567Z,46.80
